createdAt,value
2019-02-06T00:00:44.290Z,66.02
2019-02-06T00:01:49.504Z,64.50
2019-02-06T00:02:52.941Z,61.30
2019-02-06T00:03:56.828Z,60.33
2019-02-06T00:05:00.347Z,62.10
2019-02-06T00:06:04.613Z,63.90
2019-02-06T00:07:08.245Z,65.47
2019-02-06T00:08:11.789Z,56.65
2019-02-06T00:09:16.534Z,56.83
2019-02-06T00:10:20.206Z,67.62
2019-02-06T00:11:23.731Z,63.52
2019-02-06T00:12:27.164Z,53.05
2019-02-06T00:13:30.840Z,58.35
2019-02-06T00:14:34.322Z,60.00
2019-02-06T00:15:37.943Z,59.33
2019-02-06T00:16:41.795Z,59.75
2019-02-06T00:17:45.614Z,56.53
2019-02-06T00:18:49.127Z,61.63
2019-02-06T00:19:52.541Z,57.35
2019-02-06T00:20:56.001Z,55.33
2019-02-06T00:21:59.575Z,58.87
2019-02-06T00:23:03.163Z,58.05
2019-02-06T00:24:06.733Z,55.38
2019-02-06T00:25:10.306Z,55.08
2019-02-06T00:26:13.755Z,57.17
2019-02-06T00:27:17.260Z,70.78
2019-02-06T00:28:20.766Z,59.27
2019-02-06T00:29:24.485Z,50.25
2019-02-06T00:30:28.015Z,58.52
2019-02-06T00:31:31.461Z,57.93
2019-02-06T00:32:34.902Z,60.85
2019-02-06T00:33:38.433Z,64.22
2019-02-06T00:34:41.886Z,61.00
2019-02-06T00:35:45.481Z,65.12
2019-02-06T00:36:49.056Z,68.17
2019-02-06T00:37:52.585Z,67.20
2019-02-06T00:38:56.180Z,58.55
2019-02-06T00:39:59.676Z,68.12
2019-02-06T00:41:03.135Z,58.52
2019-02-06T00:42:06.706Z,58.45
2019-02-06T00:43:10.557Z,64.17
2019-02-06T00:44:14.019Z,66.40
2019-02-06T00:45:17.503Z,70.45
2019-02-06T00:46:20.955Z,61.05
2019-02-06T00:47:24.410Z,63.68
2019-02-06T00:48:27.931Z,72.15
2019-02-06T00:49:31.369Z,59.60
2019-02-06T00:50:34.876Z,60.85
2019-02-06T00:51:38.468Z,68.85
2019-02-06T00:52:42.048Z,63.75
2019-02-06T00:53:45.567Z,68.97
2019-02-06T00:54:49.019Z,69.30
2019-02-06T00:55:52.519Z,64.07
2019-02-06T00:56:56.251Z,65.92
2019-02-06T00:57:59.759Z,63.95
2019-02-06T00:59:03.372Z,62.33
2019-02-06T01:00:14.306Z,75.45
2019-02-06T01:01:17.743Z,61.20
2019-02-06T01:02:21.266Z,59.53
2019-02-06T01:03:24.767Z,70.05
2019-02-06T01:04:28.289Z,63.98
2019-02-06T01:05:38.612Z,58.15
2019-02-06T01:06:37.161Z,67.05
2019-02-06T01:07:40.737Z,66.47
2019-02-06T01:08:44.434Z,72.27
2019-02-06T01:09:48.008Z,56.80
2019-02-06T01:10:51.597Z,53.78
2019-02-06T01:11:55.523Z,53.60
2019-02-06T01:12:59.056Z,57.00
2019-02-06T01:14:02.569Z,55.65
2019-02-06T01:15:07.252Z,58.70
2019-02-06T01:16:10.753Z,61.20
2019-02-06T01:17:14.358Z,56.60
2019-02-06T01:18:17.797Z,56.53
2019-02-06T01:19:21.296Z,55.95
2019-02-06T01:20:24.729Z,59.98
2019-02-06T01:21:28.254Z,59.48
2019-02-06T01:22:31.795Z,62.30
2019-02-06T01:23:35.300Z,55.90
2019-02-06T01:24:39.040Z,56.98
2019-02-06T01:25:42.661Z,60.23
2019-02-06T01:26:46.116Z,57.73
2019-02-06T01:27:49.572Z,59.42
2019-02-06T01:28:53.076Z,60.25
2019-02-06T01:29:56.525Z,55.52
2019-02-06T01:31:01.678Z,51.28
2019-02-06T01:32:05.285Z,57.78
2019-02-06T01:33:08.886Z,51.10
2019-02-06T01:34:12.457Z,58.78
2019-02-06T01:35:16.025Z,52.85
2019-02-06T01:36:19.490Z,49.73
2019-02-06T01:37:23.071Z,53.58
2019-02-06T01:38:26.789Z,58.10
2019-02-06T01:39:30.277Z,59.10
2019-02-06T01:40:33.708Z,59.42
2019-02-06T01:41:37.203Z,60.20
2019-02-06T01:42:40.896Z,54.60
2019-02-06T01:43:44.453Z,56.28
2019-02-06T01:44:47.892Z,55.50
2019-02-06T01:45:51.424Z,53.80
2019-02-06T01:46:54.986Z,48.90
2019-02-06T01:47:58.390Z,56.28
2019-02-06T01:49:01.823Z,56.55
2019-02-06T01:50:09.874Z,53.50
2019-02-06T01:51:13.328Z,60.60
2019-02-06T01:52:17.113Z,53.25
2019-02-06T01:53:20.646Z,53.10
2019-02-06T01:54:24.147Z,63.73
2019-02-06T01:55:27.651Z,58.52
2019-02-06T01:56:31.151Z,49.48
2019-02-06T01:57:34.597Z,62.38
2019-02-06T01:58:38.064Z,69.60
2019-02-06T01:59:41.589Z,50.90
2019-02-06T02:00:45.136Z,49.45
2019-02-06T02:01:48.703Z,55.35
2019-02-06T02:02:52.389Z,53.50
2019-02-06T02:03:56.012Z,57.38
2019-02-06T02:04:59.853Z,57.48
2019-02-06T02:06:03.595Z,49.42
2019-02-06T02:07:07.098Z,54.75
2019-02-06T02:08:10.680Z,57.05
2019-02-06T02:09:15.853Z,57.65
2019-02-06T02:10:20.624Z,51.48
2019-02-06T02:11:24.125Z,50.83
2019-02-06T02:12:27.586Z,50.10
2019-02-06T02:13:31.171Z,55.45
2019-02-06T02:14:34.686Z,52.38
2019-02-06T02:15:38.219Z,53.17
2019-02-06T02:16:41.719Z,57.00
2019-02-06T02:17:45.303Z,50.88
2019-02-06T02:18:49.254Z,58.25
2019-02-06T02:19:52.878Z,53.05
2019-02-06T02:20:56.339Z,52.88
2019-02-06T02:21:59.776Z,60.65
2019-02-06T02:23:03.352Z,56.40
2019-02-06T02:24:06.856Z,63.65
2019-02-06T02:25:10.453Z,65.15
2019-02-06T02:26:13.928Z,78.87
2019-02-06T02:27:17.432Z,69.50
2019-02-06T02:28:20.866Z,69.62
2019-02-06T02:29:24.381Z,57.73
2019-02-06T02:30:38.447Z,56.45
2019-02-06T02:31:41.861Z,63.70
2019-02-06T02:32:45.386Z,63.10
2019-02-06T02:33:48.804Z,57.35
2019-02-06T02:34:52.419Z,60.33
2019-02-06T02:35:55.949Z,61.70
2019-02-06T02:36:59.390Z,54.08
2019-02-06T02:38:02.863Z,54.33
2019-02-06T02:39:07.333Z,49.42
2019-02-06T02:40:12.109Z,51.80
2019-02-06T02:41:15.572Z,55.25
2019-02-06T02:42:19.032Z,64.17
2019-02-06T02:43:22.471Z,55.28
2019-02-06T02:44:25.978Z,60.75
2019-02-06T02:45:29.479Z,51.42
2019-02-06T02:46:33.011Z,57.40
2019-02-06T02:47:36.531Z,53.73
2019-02-06T02:48:40.293Z,56.42
2019-02-06T02:49:43.725Z,51.42
2019-02-06T02:50:47.302Z,48.20
2019-02-06T02:51:50.756Z,56.77
2019-02-06T02:52:54.280Z,56.83
2019-02-06T02:53:57.720Z,54.30
2019-02-06T02:55:01.223Z,52.93
2019-02-06T02:56:04.732Z,58.85
2019-02-06T02:57:08.228Z,56.88
2019-02-06T02:58:11.732Z,56.42
2019-02-06T02:59:15.180Z,59.70
2019-02-06T03:00:21.717Z,55.55
2019-02-06T03:01:32.337Z,58.23
2019-02-06T03:02:39.848Z,62.10
2019-02-06T03:03:44.982Z,61.18
2019-02-06T03:04:48.491Z,53.00
2019-02-06T03:05:52.214Z,58.92
2019-02-06T03:06:55.734Z,58.20
2019-02-06T03:07:59.276Z,58.17
2019-02-06T03:09:02.795Z,60.65
2019-02-06T03:10:09.540Z,52.58
2019-02-06T03:11:13.280Z,59.95
2019-02-06T03:12:16.816Z,60.05
2019-02-06T03:13:20.422Z,59.38
2019-02-06T03:14:23.937Z,61.42
2019-02-06T03:15:27.368Z,60.12
2019-02-06T03:16:30.877Z,56.05
2019-02-06T03:17:34.338Z,56.85
2019-02-06T03:18:37.917Z,55.78
2019-02-06T03:19:41.838Z,65.00
2019-02-06T03:20:45.216Z,81.63
2019-02-06T03:21:48.644Z,63.78
2019-02-06T03:22:52.234Z,62.60
2019-02-06T03:23:55.735Z,61.10
2019-02-06T03:24:59.317Z,66.28
2019-02-06T03:26:02.820Z,64.10
2019-02-06T03:27:06.499Z,75.83
2019-02-06T03:28:10.028Z,61.25
2019-02-06T03:29:13.470Z,65.50
2019-02-06T03:30:20.090Z,64.07
2019-02-06T03:31:23.594Z,59.40
2019-02-06T03:32:27.036Z,63.20
2019-02-06T03:33:30.888Z,64.53
2019-02-06T03:34:34.328Z,67.22
2019-02-06T03:35:37.760Z,66.65
2019-02-06T03:36:41.201Z,71.22
2019-02-06T03:37:44.665Z,68.28
2019-02-06T03:38:48.187Z,66.57
2019-02-06T03:39:51.618Z,67.62
2019-02-06T03:40:55.085Z,65.62
2019-02-06T03:41:58.655Z,67.55
2019-02-06T03:43:02.159Z,66.55
2019-02-06T03:44:05.760Z,74.58
2019-02-06T03:45:11.652Z,66.35
2019-02-06T03:46:15.104Z,65.42
2019-02-06T03:47:18.791Z,69.53
2019-02-06T03:48:22.301Z,69.20
2019-02-06T03:49:25.757Z,66.60
2019-02-06T03:50:29.215Z,84.32
2019-02-06T03:51:32.651Z,66.35
2019-02-06T03:52:36.651Z,72.50
2019-02-06T03:53:40.088Z,84.85
2019-02-06T03:54:43.618Z,65.20
2019-02-06T03:55:47.163Z,72.75
2019-02-06T03:56:50.675Z,76.75
2019-02-06T03:57:54.104Z,77.20
2019-02-06T03:58:57.686Z,65.57
2019-02-06T04:00:01.545Z,70.87
2019-02-06T04:01:05.246Z,79.07
2019-02-06T04:02:08.758Z,85.70
2019-02-06T04:03:12.198Z,76.45
2019-02-06T04:04:15.631Z,76.70
2019-02-06T04:05:19.232Z,79.37
2019-02-06T04:06:22.660Z,73.65
2019-02-06T04:07:26.143Z,70.90
2019-02-06T04:08:29.625Z,74.20
2019-02-06T04:09:33.127Z,71.12
2019-02-06T04:10:36.580Z,63.80
2019-02-06T04:11:40.154Z,61.55
2019-02-06T04:12:43.834Z,60.33
2019-02-06T04:13:47.810Z,67.90
2019-02-06T04:14:51.260Z,59.42
2019-02-06T04:15:54.794Z,69.65
2019-02-06T04:16:58.306Z,63.55
2019-02-06T04:18:01.823Z,62.13
2019-02-06T04:19:05.491Z,66.17
2019-02-06T04:20:11.440Z,60.33
2019-02-06T04:21:14.959Z,61.60
2019-02-06T04:22:18.390Z,64.77
2019-02-06T04:23:21.835Z,57.10
2019-02-06T04:24:25.332Z,53.58
2019-02-06T04:25:28.776Z,55.52
2019-02-06T04:26:32.314Z,50.12
2019-02-06T04:27:36.042Z,54.63
2019-02-06T04:28:39.548Z,58.70
2019-02-06T04:29:42.986Z,57.27
2019-02-06T04:30:46.532Z,56.05
2019-02-06T04:31:50.054Z,53.95
2019-02-06T04:32:53.565Z,59.70
2019-02-06T04:33:57.005Z,50.52
2019-02-06T04:35:00.511Z,52.67
2019-02-06T04:36:04.410Z,56.10
2019-02-06T04:37:07.868Z,57.70
2019-02-06T04:38:11.303Z,47.48
2019-02-06T04:39:14.757Z,51.60
2019-02-06T04:40:19.818Z,52.20
2019-02-06T04:41:23.787Z,56.90
2019-02-06T04:42:27.263Z,53.40
2019-02-06T04:43:30.696Z,51.13
2019-02-06T04:44:34.133Z,62.83
2019-02-06T04:45:37.644Z,57.85
2019-02-06T04:46:41.099Z,50.92
2019-02-06T04:47:44.892Z,49.15
2019-02-06T04:48:48.405Z,48.80
2019-02-06T04:49:51.837Z,48.68
2019-02-06T04:50:55.275Z,45.30
2019-02-06T04:51:58.811Z,47.15
2019-02-06T04:53:02.328Z,52.05
2019-02-06T04:54:06.172Z,52.35
2019-02-06T04:55:12.444Z,45.38
2019-02-06T04:56:15.889Z,48.52
2019-02-06T04:57:19.408Z,42.40
2019-02-06T04:58:22.955Z,51.70
2019-02-06T04:59:26.392Z,51.45
2019-02-06T05:00:29.844Z,54.30
2019-02-06T05:01:33.347Z,52.13
2019-02-06T05:02:36.901Z,55.10
2019-02-06T05:03:40.354Z,44.58
2019-02-06T05:04:43.869Z,45.63
2019-02-06T05:05:47.340Z,48.80
2019-02-06T05:06:50.803Z,46.23
2019-02-06T05:07:54.725Z,43.87
2019-02-06T05:08:58.229Z,49.00
2019-02-06T05:10:01.705Z,41.73
2019-02-06T05:11:05.215Z,43.20
2019-02-06T05:12:09.645Z,45.48
2019-02-06T05:13:13.230Z,48.05
2019-02-06T05:14:16.728Z,47.33
2019-02-06T05:15:20.304Z,53.17
2019-02-06T05:16:23.817Z,47.83
2019-02-06T05:17:27.251Z,46.40
2019-02-06T05:18:30.709Z,43.35
2019-02-06T05:19:34.149Z,53.38
2019-02-06T05:20:38.966Z,50.05
2019-02-06T05:21:42.776Z,47.80
2019-02-06T05:22:46.215Z,46.68
2019-02-06T05:23:49.669Z,46.48
2019-02-06T05:24:53.106Z,44.70
2019-02-06T05:25:56.613Z,48.33
2019-02-06T05:27:00.044Z,56.63
2019-02-06T05:28:03.620Z,48.87
2019-02-06T05:29:07.155Z,56.18
2019-02-06T05:30:11.954Z,57.35
2019-02-06T05:31:15.391Z,55.83
2019-02-06T05:32:18.828Z,49.80
2019-02-06T05:33:22.429Z,48.83
2019-02-06T05:34:26.078Z,60.63
2019-02-06T05:35:29.992Z,74.17
2019-02-06T05:36:33.402Z,67.90
2019-02-06T05:37:36.908Z,64.62
2019-02-06T05:38:40.438Z,66.62
2019-02-06T05:39:43.967Z,58.70
2019-02-06T05:40:47.529Z,55.60
2019-02-06T05:41:51.042Z,53.92
2019-02-06T05:42:54.549Z,52.05
2019-02-06T05:43:58.025Z,50.43
2019-02-06T05:45:01.481Z,48.52
2019-02-06T05:46:04.987Z,51.70
2019-02-06T05:47:08.686Z,48.40
2019-02-06T05:48:12.389Z,42.23
2019-02-06T05:49:15.837Z,56.65
2019-02-06T05:50:19.732Z,47.93
2019-02-06T05:51:23.163Z,52.03
2019-02-06T05:52:26.591Z,46.40
2019-02-06T05:53:30.033Z,55.98
2019-02-06T05:54:33.466Z,47.08
2019-02-06T05:55:36.990Z,44.18
2019-02-06T05:56:40.494Z,45.05
2019-02-06T05:57:44.067Z,44.55
2019-02-06T05:58:47.522Z,50.50
2019-02-06T05:59:51.203Z,41.45
2019-02-06T06:00:55.171Z,45.98
2019-02-06T06:01:58.634Z,42.75
2019-02-06T06:03:02.217Z,46.92
2019-02-06T06:04:05.838Z,47.20
2019-02-06T06:05:09.396Z,48.10
2019-02-06T06:06:12.919Z,46.40
2019-02-06T06:07:16.422Z,55.98
2019-02-06T06:08:19.975Z,50.48
2019-02-06T06:09:23.404Z,48.20
2019-02-06T06:10:26.842Z,52.58
2019-02-06T06:11:30.298Z,46.65
2019-02-06T06:12:33.735Z,48.92
2019-02-06T06:13:37.442Z,49.53
2019-02-06T06:14:40.939Z,53.25
2019-02-06T06:15:44.372Z,43.15
2019-02-06T06:16:47.822Z,56.83
2019-02-06T06:17:51.348Z,47.65
2019-02-06T06:18:54.782Z,57.43
2019-02-06T06:19:58.283Z,51.42
2019-02-06T06:21:01.722Z,47.80
2019-02-06T06:22:05.415Z,48.95
2019-02-06T06:23:08.948Z,49.90
2019-02-06T06:24:12.382Z,48.78
2019-02-06T06:25:18.820Z,50.45
2019-02-06T06:26:22.622Z,48.08
2019-02-06T06:27:26.142Z,49.08
2019-02-06T06:28:29.589Z,43.13
2019-02-06T06:29:33.067Z,52.95
2019-02-06T06:30:36.492Z,51.50
2019-02-06T06:31:39.944Z,47.85
2019-02-06T06:32:43.470Z,47.70
2019-02-06T06:33:46.938Z,43.38
2019-02-06T06:34:50.499Z,44.27
2019-02-06T06:35:53.902Z,46.68
2019-02-06T06:36:57.363Z,51.85
2019-02-06T06:38:02.576Z,50.20
2019-02-06T06:39:07.704Z,47.55
2019-02-06T06:40:14.156Z,47.45
2019-02-06T06:41:17.939Z,40.67
2019-02-06T06:42:24.107Z,46.50
2019-02-06T06:43:26.639Z,53.52
2019-02-06T06:44:30.112Z,47.15
2019-02-06T06:45:33.651Z,45.17
2019-02-06T06:46:37.093Z,44.18
2019-02-06T06:47:40.602Z,44.67
2019-02-06T06:48:44.131Z,44.13
2019-02-06T06:49:47.641Z,41.13
2019-02-06T06:50:51.072Z,43.38
2019-02-06T06:51:54.590Z,44.18
2019-02-06T06:52:58.021Z,41.80
2019-02-06T06:54:01.755Z,40.92
2019-02-06T06:55:08.236Z,41.45
2019-02-06T06:56:11.666Z,39.30
2019-02-06T06:57:15.180Z,38.13
2019-02-06T06:58:18.692Z,39.27
2019-02-06T06:59:22.210Z,38.42
2019-02-06T07:00:27.580Z,38.33
2019-02-06T07:01:31.023Z,42.27
2019-02-06T07:02:34.617Z,37.33
2019-02-06T07:03:38.053Z,40.05
2019-02-06T07:04:41.513Z,36.53
2019-02-06T07:05:45.051Z,43.60
2019-02-06T07:06:48.511Z,41.28
2019-02-06T07:07:52.567Z,41.60
2019-02-06T07:08:56.225Z,48.25
2019-02-06T07:09:59.699Z,38.67
2019-02-06T07:11:03.215Z,38.30
2019-02-06T07:12:06.733Z,40.40
2019-02-06T07:13:10.305Z,40.05
2019-02-06T07:14:13.765Z,41.88
2019-02-06T07:15:22.797Z,46.77
2019-02-06T07:16:26.257Z,45.67
2019-02-06T07:17:29.831Z,43.45
2019-02-06T07:18:33.270Z,43.42
2019-02-06T07:19:36.717Z,41.63
2019-02-06T07:20:40.234Z,56.05
2019-02-06T07:21:43.839Z,42.58
2019-02-06T07:22:47.586Z,52.83
2019-02-06T07:23:51.403Z,99.97
2019-02-06T07:24:54.915Z,56.58
2019-02-06T07:25:58.364Z,46.10
2019-02-06T07:27:01.798Z,42.38
2019-02-06T07:28:05.382Z,47.43
2019-02-06T07:29:08.818Z,46.98
2019-02-06T07:30:18.141Z,45.70
2019-02-06T07:31:21.681Z,48.55
2019-02-06T07:32:25.161Z,49.35
2019-02-06T07:33:28.622Z,52.65
2019-02-06T07:34:32.065Z,49.70
2019-02-06T07:35:35.604Z,49.58
2019-02-06T07:36:39.299Z,47.53
2019-02-06T07:37:43.063Z,49.08
2019-02-06T07:38:46.599Z,46.83
2019-02-06T07:39:50.015Z,49.30
2019-02-06T07:40:53.507Z,48.73
2019-02-06T07:41:57.266Z,42.83
2019-02-06T07:43:00.771Z,49.03
2019-02-06T07:44:04.326Z,53.42
2019-02-06T07:45:10.795Z,48.02
2019-02-06T07:46:14.223Z,46.65
2019-02-06T07:47:17.692Z,53.25
2019-02-06T07:48:21.282Z,47.13
2019-02-06T07:49:24.818Z,58.87
2019-02-06T07:50:33.318Z,73.97
2019-02-06T07:51:36.845Z,70.15
2019-02-06T07:52:40.478Z,62.85
2019-02-06T07:53:43.912Z,57.55
2019-02-06T07:54:47.393Z,44.05
2019-02-06T07:55:50.832Z,48.60
2019-02-06T07:56:54.281Z,49.55
2019-02-06T07:57:58.050Z,51.80
2019-02-06T07:59:01.481Z,46.63
2019-02-06T08:00:07.507Z,53.55
2019-02-06T08:01:10.941Z,61.50
2019-02-06T08:02:14.471Z,55.48
2019-02-06T08:03:18.037Z,52.10
2019-02-06T08:04:21.514Z,55.17
2019-02-06T08:05:25.278Z,57.60
2019-02-06T08:06:29.119Z,56.20
2019-02-06T08:07:32.690Z,59.48
2019-02-06T08:08:36.521Z,51.73
2019-02-06T08:09:39.975Z,57.73
2019-02-06T08:10:43.547Z,66.42
2019-02-06T08:11:46.987Z,75.55
2019-02-06T08:12:50.708Z,56.35
2019-02-06T08:13:54.282Z,53.50
2019-02-06T08:14:57.962Z,60.60
2019-02-06T08:16:01.396Z,71.00
2019-02-06T08:17:04.982Z,73.87
2019-02-06T08:18:10.723Z,65.12
2019-02-06T08:19:13.921Z,64.90
2019-02-06T08:20:19.820Z,62.38
2019-02-06T08:21:23.258Z,65.15
2019-02-06T08:22:26.759Z,53.95
2019-02-06T08:23:30.290Z,66.53
2019-02-06T08:24:33.745Z,58.15
2019-02-06T08:25:37.191Z,61.92
2019-02-06T08:26:40.697Z,51.45
2019-02-06T08:27:44.223Z,70.47
2019-02-06T08:28:47.745Z,69.67
2019-02-06T08:29:51.273Z,64.05
2019-02-06T08:30:54.759Z,66.25
2019-02-06T08:31:58.297Z,73.47
2019-02-06T08:33:01.941Z,71.05
2019-02-06T08:34:05.912Z,66.33
2019-02-06T08:35:10.876Z,67.35
2019-02-06T08:36:14.383Z,72.10
2019-02-06T08:37:17.954Z,66.75
2019-02-06T08:38:21.389Z,80.05
2019-02-06T08:39:24.882Z,66.90
2019-02-06T08:40:32.207Z,67.85
2019-02-06T08:41:35.643Z,69.47
2019-02-06T08:42:39.073Z,68.40
2019-02-06T08:43:42.581Z,61.28
2019-02-06T08:44:46.129Z,69.58
2019-02-06T08:45:49.568Z,61.83
2019-02-06T08:46:53.136Z,61.42
2019-02-06T08:47:56.824Z,65.00
2019-02-06T08:49:00.539Z,63.08
2019-02-06T08:50:06.170Z,60.73
2019-02-06T08:51:09.695Z,64.10
2019-02-06T08:52:13.202Z,60.67
2019-02-06T08:53:16.708Z,69.75
2019-02-06T08:54:20.470Z,60.28
2019-02-06T08:55:31.824Z,64.40
2019-02-06T08:56:35.382Z,70.08
2019-02-06T08:57:39.074Z,60.38
2019-02-06T08:58:42.646Z,67.53
2019-02-06T08:59:46.105Z,63.40
2019-02-06T09:00:49.680Z,66.12
2019-02-06T09:01:53.212Z,71.97
2019-02-06T09:02:56.991Z,60.95
2019-02-06T09:04:00.710Z,62.03
2019-02-06T09:05:07.626Z,67.87
2019-02-06T09:06:11.238Z,63.35
2019-02-06T09:07:14.890Z,60.50
2019-02-06T09:08:18.465Z,77.32
2019-02-06T09:09:21.909Z,66.72
2019-02-06T09:10:27.498Z,60.00
2019-02-06T09:11:30.930Z,64.30
2019-02-06T09:12:34.363Z,61.88
2019-02-06T09:13:38.045Z,65.20
2019-02-06T09:14:41.544Z,58.83
2019-02-06T09:15:45.022Z,65.83
2019-02-06T09:16:48.441Z,61.35
2019-02-06T09:17:52.123Z,66.97
2019-02-06T09:18:55.565Z,67.82
2019-02-06T09:19:59.159Z,77.30
2019-02-06T09:21:02.665Z,64.85
2019-02-06T09:22:06.241Z,69.40
2019-02-06T09:23:09.820Z,75.67
2019-02-06T09:24:13.282Z,71.02
2019-02-06T09:25:19.046Z,95.83
2019-02-06T09:26:22.506Z,80.75
2019-02-06T09:27:26.023Z,64.53
2019-02-06T09:28:29.469Z,60.80
2019-02-06T09:29:32.909Z,73.75
2019-02-06T09:30:36.568Z,73.42
2019-02-06T09:31:40.473Z,62.90
2019-02-06T09:32:43.978Z,60.10
2019-02-06T09:33:47.417Z,69.95
2019-02-06T09:34:50.861Z,63.63
2019-02-06T09:35:54.448Z,71.87
2019-02-06T09:36:57.981Z,66.82
2019-02-06T09:38:02.322Z,67.97
2019-02-06T09:39:11.750Z,66.50
2019-02-06T09:40:18.655Z,68.10
2019-02-06T09:41:22.254Z,74.55
2019-02-06T09:42:25.830Z,71.97
2019-02-06T09:43:29.276Z,65.57
2019-02-06T09:44:32.756Z,73.67
2019-02-06T09:45:36.264Z,76.67
2019-02-06T09:46:40.058Z,69.62
2019-02-06T09:47:43.562Z,72.47
2019-02-06T09:48:47.051Z,72.22
2019-02-06T09:49:50.562Z,73.42
2019-02-06T09:50:54.156Z,81.25
2019-02-06T09:51:57.632Z,64.67
2019-02-06T09:53:01.226Z,70.65
2019-02-06T09:54:04.731Z,65.05
2019-02-06T09:55:08.407Z,68.25
2019-02-06T09:56:12.005Z,67.30
2019-02-06T09:57:15.546Z,75.35
2019-02-06T09:58:18.987Z,64.85
2019-02-06T09:59:22.598Z,69.77
2019-02-06T10:00:29.325Z,71.12
2019-02-06T10:01:32.781Z,73.10
2019-02-06T10:02:36.293Z,70.32
2019-02-06T10:03:39.742Z,82.02
2019-02-06T10:04:43.307Z,69.45
2019-02-06T10:05:46.834Z,62.17
2019-02-06T10:06:50.276Z,72.75
2019-02-06T10:07:53.782Z,68.30
2019-02-06T10:08:57.249Z,79.10
2019-02-06T10:10:00.719Z,74.32
2019-02-06T10:11:04.316Z,59.50
2019-02-06T10:12:07.824Z,63.98
2019-02-06T10:13:11.448Z,65.65
2019-02-06T10:14:14.873Z,69.70
2019-02-06T10:15:26.815Z,66.00
2019-02-06T10:16:30.333Z,65.95
2019-02-06T10:17:36.171Z,73.42
2019-02-06T10:18:38.940Z,68.35
2019-02-06T10:19:42.664Z,56.37
2019-02-06T10:20:48.362Z,63.55
2019-02-06T10:21:53.740Z,63.68
2019-02-06T10:22:57.413Z,67.80
2019-02-06T10:24:00.871Z,67.62
2019-02-06T10:25:05.549Z,61.65
2019-02-06T10:26:09.066Z,59.25
2019-02-06T10:27:12.631Z,66.85
2019-02-06T10:28:16.129Z,69.27
2019-02-06T10:29:19.637Z,67.87
2019-02-06T10:30:29.315Z,70.72
2019-02-06T10:31:33.046Z,64.58
2019-02-06T10:32:36.464Z,69.87
2019-02-06T10:33:39.907Z,73.45
2019-02-06T10:34:43.481Z,69.00
2019-02-06T10:35:47.124Z,72.15
2019-02-06T10:36:50.569Z,72.85
2019-02-06T10:37:54.074Z,64.92
2019-02-06T10:38:57.502Z,64.80
2019-02-06T10:40:01.016Z,67.50
2019-02-06T10:41:04.799Z,59.48
2019-02-06T10:42:08.360Z,58.40
2019-02-06T10:43:11.934Z,66.15
2019-02-06T10:44:15.537Z,59.10
2019-02-06T10:45:21.212Z,64.22
2019-02-06T10:46:24.781Z,65.10
2019-02-06T10:47:28.273Z,61.45
2019-02-06T10:48:31.731Z,63.23
2019-02-06T10:49:35.167Z,59.70
2019-02-06T10:50:41.651Z,65.52
2019-02-06T10:51:45.097Z,64.45
2019-02-06T10:52:48.776Z,60.10
2019-02-06T10:53:52.291Z,62.15
2019-02-06T10:54:55.864Z,84.42
2019-02-06T10:55:59.383Z,70.60
2019-02-06T10:57:02.875Z,120.05
2019-02-06T10:58:06.806Z,118.13
2019-02-06T10:59:10.506Z,101.22
2019-02-06T11:00:31.844Z,66.35
2019-02-06T11:01:35.318Z,80.50
2019-02-06T11:02:38.827Z,74.77
2019-02-06T11:03:45.320Z,64.77
2019-02-06T11:04:48.835Z,67.15
2019-02-06T11:05:52.422Z,67.67
2019-02-06T11:06:55.934Z,63.58
2019-02-06T11:07:59.494Z,65.72
2019-02-06T11:09:04.086Z,67.87
2019-02-06T11:10:10.567Z,65.37
2019-02-06T11:11:14.076Z,65.30
2019-02-06T11:12:17.602Z,60.05
2019-02-06T11:13:21.214Z,65.60
2019-02-06T11:14:24.672Z,59.88
2019-02-06T11:15:28.840Z,65.85
2019-02-06T11:16:32.296Z,62.83
2019-02-06T11:17:36.267Z,63.70
2019-02-06T11:18:39.717Z,64.20
2019-02-06T11:19:43.365Z,66.45
2019-02-06T11:20:46.929Z,65.32
2019-02-06T11:21:50.420Z,62.23
2019-02-06T11:22:53.928Z,61.18
2019-02-06T11:23:57.400Z,64.95
2019-02-06T11:25:00.829Z,63.60
2019-02-06T11:26:05.253Z,66.10
2019-02-06T11:27:08.824Z,66.22
2019-02-06T11:28:12.416Z,63.02
2019-02-06T11:29:15.868Z,57.50
2019-02-06T11:30:22.135Z,63.87
2019-02-06T11:31:25.861Z,66.87
2019-02-06T11:32:29.290Z,60.17
2019-02-06T11:33:32.794Z,73.00
2019-02-06T11:34:36.247Z,72.20
2019-02-06T11:35:39.762Z,70.65
2019-02-06T11:36:43.198Z,58.83
2019-02-06T11:37:46.796Z,64.65
2019-02-06T11:38:50.277Z,65.22
2019-02-06T11:39:58.117Z,65.47
2019-02-06T11:40:59.069Z,74.37
2019-02-06T11:42:02.504Z,60.65
2019-02-06T11:43:06.478Z,69.97
2019-02-06T11:44:10.047Z,63.60
2019-02-06T11:45:19.390Z,91.57
2019-02-06T11:46:22.919Z,70.05
2019-02-06T11:47:26.425Z,92.97
2019-02-06T11:48:29.924Z,59.77
2019-02-06T11:49:35.062Z,66.60
2019-02-06T11:50:40.019Z,72.37
2019-02-06T11:51:43.535Z,66.97
2019-02-06T11:52:47.144Z,70.75
2019-02-06T11:53:50.641Z,67.50
2019-02-06T11:54:54.159Z,66.92
2019-02-06T11:55:57.771Z,56.73
2019-02-06T11:57:01.255Z,60.92
2019-02-06T11:58:05.230Z,69.42
2019-02-06T11:59:08.756Z,84.65
2019-02-06T12:00:22.482Z,64.97
2019-02-06T12:01:27.438Z,60.58
2019-02-06T12:02:37.360Z,59.77
2019-02-06T12:03:36.285Z,64.80
2019-02-06T12:04:39.729Z,61.23
2019-02-06T12:05:43.252Z,61.90
2019-02-06T12:06:46.838Z,66.90
2019-02-06T12:07:50.330Z,72.20
2019-02-06T12:08:53.769Z,129.63
2019-02-06T12:10:09.076Z,99.17
2019-02-06T12:11:02.569Z,61.68
2019-02-06T12:12:06.193Z,57.67
2019-02-06T12:13:09.851Z,59.15
2019-02-06T12:14:13.355Z,61.53
2019-02-06T12:15:18.630Z,55.73
2019-02-06T12:16:22.181Z,52.58
2019-02-06T12:17:26.062Z,115.03
2019-02-06T12:18:29.641Z,79.65
2019-02-06T12:19:33.077Z,58.10
2019-02-06T12:20:36.843Z,55.78
2019-02-06T12:21:40.341Z,61.40
2019-02-06T12:22:43.835Z,58.80
2019-02-06T12:23:47.267Z,53.05
2019-02-06T12:24:50.701Z,54.13
2019-02-06T12:25:54.219Z,60.98
2019-02-06T12:26:57.653Z,53.98
2019-02-06T12:28:01.106Z,57.48
2019-02-06T12:29:04.773Z,56.58
2019-02-06T12:30:26.392Z,45.50
2019-02-06T12:31:29.902Z,55.85
2019-02-06T12:32:33.424Z,65.72
2019-02-06T12:33:37.153Z,52.50
2019-02-06T12:34:40.631Z,49.45
2019-02-06T12:35:44.131Z,49.58
2019-02-06T12:36:47.626Z,48.52
2019-02-06T12:37:51.309Z,48.83
2019-02-06T12:38:54.736Z,47.45
2019-02-06T12:39:58.243Z,51.10
2019-02-06T12:41:01.746Z,55.33
2019-02-06T12:42:05.525Z,53.13
2019-02-06T12:43:10.602Z,50.20
2019-02-06T12:44:14.221Z,59.20
2019-02-06T12:45:20.545Z,54.73
2019-02-06T12:46:23.984Z,61.00
2019-02-06T12:47:27.489Z,49.75
2019-02-06T12:48:31.012Z,53.15
2019-02-06T12:49:34.579Z,56.60
2019-02-06T12:50:38.161Z,53.92
2019-02-06T12:51:41.578Z,57.53
2019-02-06T12:52:45.149Z,54.98
2019-02-06T12:53:48.585Z,51.45
2019-02-06T12:54:52.087Z,54.33
2019-02-06T12:55:55.514Z,56.15
2019-02-06T12:56:58.942Z,51.00
2019-02-06T12:58:02.692Z,56.65
2019-02-06T12:59:06.657Z,45.75
2019-02-06T13:00:21.755Z,63.80
2019-02-06T13:01:25.689Z,57.05
2019-02-06T13:02:29.141Z,57.05
2019-02-06T13:03:32.653Z,52.03
2019-02-06T13:04:36.087Z,51.98
2019-02-06T13:05:39.695Z,50.80
2019-02-06T13:06:43.149Z,51.35
2019-02-06T13:07:46.649Z,57.70
2019-02-06T13:08:50.115Z,54.77
2019-02-06T13:09:53.563Z,96.15
2019-02-06T13:10:57.067Z,60.83
2019-02-06T13:12:00.496Z,62.17
2019-02-06T13:13:04.762Z,47.45
2019-02-06T13:14:08.649Z,54.27
2019-02-06T13:15:15.080Z,54.08
2019-02-06T13:16:18.541Z,60.43
2019-02-06T13:17:21.972Z,93.75
2019-02-06T13:18:25.422Z,59.18
2019-02-06T13:19:28.885Z,57.83
2019-02-06T13:20:36.151Z,57.78
2019-02-06T13:21:39.725Z,60.78
2019-02-06T13:22:43.292Z,60.28
2019-02-06T13:23:49.447Z,62.23
2019-02-06T13:24:51.905Z,50.63
2019-02-06T13:25:55.423Z,58.25
2019-02-06T13:26:59.057Z,55.30
2019-02-06T13:28:02.734Z,86.92
2019-02-06T13:29:06.511Z,80.85
2019-02-06T13:30:12.997Z,63.85
2019-02-06T13:31:16.518Z,64.80
2019-02-06T13:32:19.962Z,54.83
2019-02-06T13:33:23.434Z,56.10
2019-02-06T13:34:26.912Z,54.00
2019-02-06T13:35:30.486Z,50.98
2019-02-06T13:36:34.009Z,59.18
2019-02-06T13:37:37.540Z,56.15
2019-02-06T13:38:41.067Z,54.23
2019-02-06T13:39:44.565Z,59.85
2019-02-06T13:40:48.159Z,71.45
2019-02-06T13:41:51.754Z,89.32
2019-02-06T13:42:55.636Z,70.00